Time;durP1;ratioP1;P1;durP2;ratioP2;P2;SDS_P1;SDS_P2;PMS_P1;PMS_P2;Temp;Humidity;BMP_temperature;BMP_pressure;BME280_temperature;BME280_humidity;BME280_pressure;Samples;Min_cycle;Max_cycle;Signal;HPM_P1;HPM_P2
2022/02/17 05:45:01;;;;;;;53.98;32.25;;;;;;;4.37;100.00;99219.31;1711382;82;21671;-42
2022/02/17 05:47:28;;;;;;;62.13;33.30;;;;;;;4.39;100.00;99229.24;1733601;82;20988;-43
2022/02/17 05:49:54;;;;;;;57.80;31.57;;;;;;;4.41;100.00;99219.78;1720960;81;21616;-36
2022/02/17 05:52:21;;;;;;;57.65;31.50;;;;;;;4.43;100.00;99215.47;1728501;81;21019;-36
2022/02/17 05:54:48;;;;;;;59.08;31.42;;;;;;;4.44;100.00;99209.43;1722639;82;21063;-36
2022/02/17 05:57:15;;;;;;;61.28;32.17;;;;;;;4.46;100.00;99203.82;1720883;81;21454;-36
2022/02/17 05:59:44;;;;;;;62.75;32.10;;;;;;;4.48;100.00;99206.02;1729047;82;21086;-37
2022/02/17 06:02:13;;;;;;;58.48;30.72;;;;;;;4.50;100.00;99209.05;1722836;81;21015;-36
2022/02/17 06:04:43;;;;;;;57.27;31.37;;;;;;;4.54;100.00;99196.98;1721483;82;21378;-42
2022/02/17 06:07:09;;;;;;;78.40;33.20;;;;;;;4.57;100.00;99202.61;1708417;82;20993;-43
2022/02/17 06:09:36;;;;;;;61.60;34.03;;;;;;;4.58;100.00;99196.16;1710729;82;21104;-43
2022/02/17 06:12:04;;;;;;;62.60;34.03;;;;;;;4.59;100.00;99179.76;1681137;83;20985;-37
2022/02/17 06:14:31;;;;;;;59.48;33.02;;;;;;;4.62;100.00;99191.42;1715426;81;21452;-36
2022/02/17 06:16:58;;;;;;;64.17;34.18;;;;;;;4.62;100.00;99191.42;1711694;81;21585;-36
2022/02/17 06:19:51;;;;;;;62.85;34.78;;;;;;;4.64;100.00;99194.91;1720344;81;21099;-36
2022/02/17 06:23:57;;;;;;;60.33;32.15;;;;;;;4.67;100.00;99187.13;1719813;82;21410;-36
2022/02/17 06:27:55;;;;;;;62.10;34.38;;;;;;;4.68;100.00;99182.39;1723127;82;21029;-36
2022/02/17 06:36:03;;;;;;;70.85;35.85;;;;;;;4.68;100.00;99180.22;1675844;84;22020;-39
2022/02/17 06:43:12;;;;;;;67.90;31.23;;;;;;;4.68;100.00;99152.59;1714184;81;21312;-43
2022/02/17 06:46:40;;;;;;;57.33;32.53;;;;;;;4.70;100.00;99158.67;1716774;81;21933;-35
2022/02/17 06:49:07;;;;;;;69.55;36.55;;;;;;;4.71;100.00;99146.58;1712777;81;21152;-42
2022/02/17 06:51:34;;;;;;;60.73;35.13;;;;;;;4.71;100.00;99156.94;1715821;83;21062;-35
2022/02/17 06:54:02;;;;;;;67.45;33.45;;;;;;;4.72;100.00;99137.94;1711332;82;21450;-36
2022/02/17 06:56:29;;;;;;;57.95;32.90;;;;;;;4.72;100.00;99145.71;1725886;82;20985;-42
2022/02/17 06:58:56;;;;;;;74.65;37.50;;;;;;;4.72;100.00;99145.28;1724828;82;21521;-43
2022/02/17 07:01:23;;;;;;;56.75;31.42;;;;;;;4.71;100.00;99133.63;1723950;82;21507;-36
2022/02/17 07:03:51;;;;;;;65.55;36.45;;;;;;;4.71;100.00;99128.00;1717406;82;21612;-36
2022/02/17 07:06:17;;;;;;;60.48;36.28;;;;;;;4.71;100.00;99116.78;1689703;83;21337;-37
2022/02/17 07:08:45;;;;;;;65.45;35.90;;;;;;;4.71;100.00;99120.23;1715124;83;21567;-35
2022/02/17 07:11:13;;;;;;;61.88;33.90;;;;;;;4.72;100.00;99109.00;1703494;82;21006;-36
2022/02/17 07:13:42;;;;;;;60.65;33.42;;;;;;;4.74;100.00;99079.20;1720335;82;21037;-36
2022/02/17 07:16:09;;;;;;;62.93;34.38;;;;;;;4.72;100.00;99109.00;1714236;81;21504;-36
2022/02/17 07:18:37;;;;;;;60.20;32.75;;;;;;;4.72;100.00;99103.81;1699336;81;22045;-43
2022/02/17 07:29:24;;;;;;;60.45;33.63;;;;;;;4.70;100.00;99101.66;1719807;81;21012;-36
2022/02/17 07:43:10;;;;;;;63.50;33.75;;;;;;;4.58;100.00;99088.66;1706549;83;21405;-36
2022/02/17 07:46:36;;;;;;;60.90;34.08;;;;;;;4.59;100.00;99086.50;1720582;82;21883;-36
2022/02/17 07:49:26;;;;;;;61.77;33.73;;;;;;;4.60;100.00;99073.11;1730558;82;21085;-36
2022/02/17 07:52:05;;;;;;;54.63;31.97;;;;;;;4.62;100.00;99054.54;1731821;82;20958;-36
2022/02/17 07:54:36;;;;;;;57.53;31.23;;;;;;;4.64;100.00;99061.88;1732141;81;21060;-36
2022/02/17 07:57:06;;;;;;;56.35;30.68;;;;;;;4.63;100.00;99049.36;1732188;81;21851;-36
2022/02/17 07:59:33;;;;;;;56.28;31.60;;;;;;;4.62;100.00;99044.17;1731875;81;21336;-37
2022/02/17 08:02:00;;;;;;;51.15;31.90;;;;;;;4.63;100.00;99027.77;1734677;82;21009;-36
2022/02/17 08:04:27;;;;;;;58.17;33.05;;;;;;;4.64;100.00;99027.80;1718950;82;21013;-37
2022/02/17 08:06:53;;;;;;;53.58;30.25;;;;;;;4.67;100.00;99024.34;1734723;82;20969;-36
2022/02/17 08:09:21;;;;;;;52.55;30.55;;;;;;;4.68;100.00;99017.86;1721063;82;21064;-36
2022/02/17 08:12:07;;;;;;;53.95;30.00;;;;;;;4.72;100.00;99017.02;1713392;82;21543;-36
2022/02/17 08:15:29;;;;;;;54.83;30.70;;;;;;;4.75;100.00;99019.63;1727584;82;21005;-36
2022/02/17 08:19:45;;;;;;;51.95;28.87;;;;;;;4.78;100.00;99030.42;1731977;81;21039;-36
2022/02/17 08:23:44;;;;;;;58.35;30.25;;;;;;;4.84;100.00;99016.62;1739408;80;21473;-37
2022/02/17 08:30:51;;;;;;;52.88;30.00;;;;;;;4.94;100.00;99006.72;1734629;82;21060;-43
2022/02/17 08:34:06;;;;;;;55.52;29.48;;;;;;;5.02;100.00;98983.81;1738605;80;21760;-36
2022/02/17 08:37:02;;;;;;;53.55;31.02;;;;;;;5.11;100.00;98974.34;1727539;82;21062;-43
2022/02/17 08:40:30;;;;;;;53.33;31.75;;;;;;;5.18;100.00;98965.27;1733062;81;21163;-43
2022/02/17 08:43:08;;;;;;;44.88;27.93;;;;;;;5.27;100.00;98957.91;1731632;82;21017;-36
2022/02/17 08:45:38;;;;;;;53.75;29.60;;;;;;;5.36;100.00;98962.24;1733815;82;21504;-36
2022/02/17 08:48:05;;;;;;;51.53;29.45;;;;;;;5.40;100.00;98949.27;1709660;82;21015;-36
2022/02/17 08:50:33;;;;;;;55.67;27.15;;;;;;;5.48;100.00;98944.07;1719242;82;21362;-36
2022/02/17 08:53:00;;;;;;;46.33;27.87;;;;;;;5.53;100.00;98950.13;1720017;82;21448;-43
2022/02/17 08:55:27;;;;;;;47.50;27.17;;;;;;;5.59;100.00;98953.57;1701623;82;21003;-43
2022/02/17 08:57:54;;;;;;;46.98;26.68;;;;;;;5.65;100.00;98954.44;1708540;82;20961;-36
2022/02/17 09:00:21;;;;;;;49.55;28.25;;;;;;;5.70;100.00;98948.81;1725021;81;21096;-36
2022/02/17 09:02:48;;;;;;;43.15;26.12;;;;;;;5.76;100.00;98949.66;1723094;81;21473;-36
2022/02/17 09:05:14;;;;;;;42.60;24.45;;;;;;;5.82;100.00;98940.99;1721962;82;21077;-37
2022/02/17 09:11:44;;;;;;;44.48;24.20;;;;;;;5.95;100.00;98932.33;1716134;81;21525;-36
2022/02/17 09:14:39;;;;;;;38.67;23.27;;;;;;;6.05;100.00;98917.59;1718964;82;21411;-36
2022/02/17 09:17:08;;;;;;;37.25;24.52;;;;;;;6.15;100.00;98915.40;1700843;83;21029;-36
2022/02/17 09:19:46;;;;;;;47.83;25.50;;;;;;;6.23;100.00;98898.47;1700554;82;21551;-36
2022/02/17 09:22:19;;;;;;;43.90;25.05;;;;;;;6.30;100.00;98891.93;1713247;81;21583;-36
2022/02/17 09:29:27;;;;;;;49.70;26.80;;;;;;;6.47;100.00;98863.70;1713008;81;21654;-36
2022/02/17 09:33:20;;;;;;;44.10;27.42;;;;;;;6.59;100.00;98843.69;1713390;83;21065;-42
2022/02/17 09:36:11;;;;;;;38.25;25.57;;;;;;;6.77;100.00;98819.30;1717884;81;21469;-42
2022/02/17 09:38:44;;;;;;;47.08;25.82;;;;;;;6.92;100.00;98815.27;1705184;82;21112;-36
2022/02/17 09:41:14;;;;;;;36.65;24.10;;;;;;;7.07;100.00;98809.05;1717019;81;21006;-43
2022/02/17 09:43:41;;;;;;;40.67;22.98;;;;;;;7.19;99.77;98809.41;1717881;83;21501;-43
2022/02/17 09:46:10;;;;;;;38.95;23.60;;;;;;;7.30;98.87;98815.33;1715176;83;21030;-36
2022/02/17 09:48:40;;;;;;;45.97;24.00;;;;;;;7.41;97.89;98799.61;1706404;82;21097;-42
2022/02/17 09:51:07;;;;;;;34.00;22.95;;;;;;;7.52;96.80;98804.26;1723967;81;21340;-43
2022/02/17 09:53:35;;;;;;;36.75;22.75;;;;;;;7.63;96.89;98784.62;1731340;80;21870;-43
2022/02/17 09:56:04;;;;;;;32.28;21.37;;;;;;;7.78;97.19;98773.17;1728092;81;21020;-43
2022/02/17 09:58:31;;;;;;;33.13;21.42;;;;;;;7.93;96.57;98763.83;1710773;82;21032;-43
2022/02/17 10:00:58;;;;;;;29.63;20.88;;;;;;;8.12;95.70;98752.73;1733139;82;21453;-42
2022/02/17 10:03:32;;;;;;;38.88;20.68;;;;;;;8.30;95.47;98736.83;1732464;81;21009;-43
2022/02/17 10:06:11;;;;;;;30.00;19.52;;;;;;;8.47;93.42;98727.03;1733533;82;21007;-42
2022/02/17 10:08:40;;;;;;;38.05;20.20;;;;;;;8.64;92.97;98718.92;1710280;83;21517;-43
2022/02/17 10:12:22;;;;;;;30.43;21.25;;;;;;;8.76;91.53;98708.28;1734795;81;21064;-37
2022/02/17 10:16:19;;;;;;;33.55;20.20;;;;;;;8.87;92.36;98708.09;1730016;82;21068;-42
2022/02/17 10:20:14;;;;;;;27.32;18.00;;;;;;;9.19;89.92;98707.91;1715545;82;21057;-36
2022/02/17 10:23:30;;;;;;;30.90;17.23;;;;;;;9.39;87.83;98687.92;1717872;81;21664;-36
2022/02/17 10:26:33;;;;;;;32.25;17.73;;;;;;;9.59;86.64;98682.72;1724637;82;21671;-36
2022/02/17 10:29:36;;;;;;;38.45;17.73;;;;;;;9.78;85.23;98687.53;1714901;82;21105;-36
2022/02/17 10:32:22;;;;;;;31.30;17.20;;;;;;;9.94;84.45;98665.39;1726362;82;21068;-36
2022/02/17 10:38:23;;;;;;;32.13;17.80;;;;;;;10.55;80.58;98662.64;1741521;82;21502;-43
2022/02/17 10:40:54;;;;;;;29.63;16.60;;;;;;;10.88;78.39;98641.70;1731712;82;21057;-43
2022/02/17 10:43:29;;;;;;;27.60;15.55;;;;;;;11.07;77.88;98642.89;1718881;82;21134;-42
2022/02/17 10:46:10;;;;;;;26.97;15.63;;;;;;;11.23;76.60;98628.07;1735787;82;21500;-43
2022/02/17 10:48:37;;;;;;;29.82;16.65;;;;;;;11.24;76.29;98633.71;1740547;82;21009;-42
2022/02/17 10:51:13;;;;;;;28.45;16.10;;;;;;;11.08;77.76;98626.77;1735001;81;21041;-43
2022/02/17 10:53:45;;;;;;;30.52;17.25;;;;;;;10.83;77.53;98626.12;1730085;82;21084;-43
2022/02/17 10:56:15;;;;;;;27.82;16.27;;;;;;;10.67;79.66;98615.69;1728677;82;21426;-37
2022/02/17 10:58:47;;;;;;;30.72;16.00;;;;;;;10.60;79.81;98614.11;1726408;82;21563;-36
2022/02/17 11:01:12;;;;;;;31.95;16.67;;;;;;;10.49;79.98;98613.09;1665668;84;21023;-37
2022/02/17 11:03:39;;;;;;;27.15;15.95;;;;;;;10.42;80.43;98609.38;1740723;81;21019;-36
2022/02/17 11:06:07;;;;;;;29.82;15.98;;;;;;;10.39;81.22;98605.09;1745408;80;21051;-35
2022/02/17 11:08:37;;;;;;;29.30;16.80;;;;;;;10.41;81.21;98591.98;1675420;84;21104;-42
2022/02/17 11:11:04;;;;;;;27.62;15.72;;;;;;;10.53;81.49;98594.27;1702903;82;21024;-43
2022/02/17 11:13:31;;;;;;;29.92;15.85;;;;;;;10.76;81.11;98580.11;1732990;80;21388;-42
2022/02/17 11:16:02;;;;;;;22.00;15.13;;;;;;;11.16;79.75;98569.81;1729033;80;21008;-42
2022/02/17 11:18:31;;;;;;;22.22;14.30;;;;;;;11.41;77.97;98555.06;1731342;81;21564;-42
2022/02/17 11:21:30;;;;;;;25.92;14.80;;;;;;;11.41;76.75;98541.12;1706134;82;21986;-36
2022/02/17 11:24:01;;;;;;;27.15;14.85;;;;;;;11.26;77.58;98553.39;1732461;80;21056;-42
2022/02/17 11:26:40;;;;;;;26.40;14.15;;;;;;;11.06;77.87;98533.88;1709579;80;21013;-37
2022/02/17 11:30:05;;;;;;;28.40;14.53;;;;;;;11.00;78.70;98513.13;1711967;80;21395;-42
2022/02/17 11:33:21;;;;;;;33.50;14.35;;;;;;;11.08;77.38;98515.55;1734616;80;21009;-38
2022/02/17 11:36:45;;;;;;;26.15;14.95;;;;;;;11.03;78.02;98503.90;1719011;80;21040;-36
2022/02/17 11:40:11;;;;;;;25.23;15.03;;;;;;;11.07;78.64;98491.55;1713387;80;21495;-44
2022/02/17 11:47:14;;;;;;;24.87;14.58;;;;;;;11.64;75.49;98501.95;1714840;81;21038;-36
2022/02/17 11:50:17;;;;;;;33.75;15.45;;;;;;;11.72;75.60;98486.01;1717719;81;21616;-36
2022/02/17 11:54:15;;;;;;;28.80;14.83;;;;;;;11.75;75.25;98490.28;1716344;81;21024;-37
2022/02/17 11:57:15;;;;;;;25.52;13.60;;;;;;;11.66;75.76;98477.91;1719304;81;21485;-37
2022/02/17 12:00:35;;;;;;;27.58;15.75;;;;;;;11.60;76.22;98478.56;1718211;81;21062;-42
2022/02/17 12:04:33;;;;;;;22.35;13.75;;;;;;;11.60;76.11;98467.63;1720754;81;21420;-43
2022/02/17 12:07:38;;;;;;;24.07;14.43;;;;;;;11.80;75.33;98470.02;1696762;81;21041;-37
2022/02/17 12:10:47;;;;;;;27.10;13.48;;;;;;;11.78;75.53;98461.37;1700134;82;20972;-36
2022/02/17 12:13:36;;;;;;;31.15;14.28;;;;;;;11.86;74.92;98445.81;1718865;81;21069;-36
2022/02/17 12:16:37;;;;;;;26.37;13.95;;;;;;;11.91;73.57;98441.73;1711608;81;21576;-36
2022/02/17 12:19:15;;;;;;;27.22;13.70;;;;;;;11.84;74.26;98426.67;1634709;85;22055;-36
2022/02/17 12:21:43;;;;;;;21.97;14.05;;;;;;;11.72;74.18;98416.59;1639998;85;21031;-36
2022/02/17 12:24:13;;;;;;;28.92;14.63;;;;;;;11.66;75.14;98425.97;1622556;86;21123;-36
2022/02/17 12:26:48;;;;;;;20.32;13.08;;;;;;;11.70;75.15;98407.45;1613449;86;21540;-36
2022/02/17 12:29:30;;;;;;;21.50;13.43;;;;;;;11.86;74.69;98388.16;1626640;85;21019;-42
2022/02/17 12:32:18;;;;;;;26.65;13.88;;;;;;;12.04;73.98;98391.89;1649516;84;21017;-36
2022/02/17 12:34:51;;;;;;;23.85;14.45;;;;;;;12.18;73.20;98384.86;1642262;85;21925;-35
2022/02/17 12:37:21;;;;;;;22.13;13.35;;;;;;;12.43;72.53;98371.68;1639454;85;21923;-40
2022/02/17 12:39:51;;;;;;;22.48;13.53;;;;;;;12.73;71.82;98367.87;1647976;85;21393;-35
2022/02/17 12:42:20;;;;;;;21.80;13.22;;;;;;;12.86;71.11;98373.94;1650653;85;21449;-35
2022/02/17 12:44:48;;;;;;;25.43;13.48;;;;;;;12.70;70.49;98361.45;1657224;85;21440;-35
2022/02/17 12:47:15;;;;;;;26.90;14.05;;;;;;;12.43;70.63;98359.88;1637190;85;21007;-35
2022/02/17 12:49:42;;;;;;;22.55;13.15;;;;;;;12.20;71.83;98358.12;1662415;85;21830;-35
2022/02/17 12:52:17;;;;;;;25.60;14.60;;;;;;;11.97;72.44;98355.03;1662732;84;21113;-35
2022/02/17 12:54:56;;;;;;;17.52;12.58;;;;;;;11.80;73.12;98363.45;1703103;80;21530;-35
2022/02/17 12:57:27;;;;;;;25.68;12.68;;;;;;;11.63;73.51;98358.81;1705638;82;21001;-36
2022/02/17 12:59:58;;;;;;;22.80;13.58;;;;;;;11.47;74.75;98360.23;1727024;82;20989;-35
2022/02/17 13:02:25;;;;;;;25.25;13.55;;;;;;;11.35;74.82;98353.66;1734066;81;21347;-37
2022/02/17 13:04:58;;;;;;;27.27;13.48;;;;;;;11.29;75.22;98351.25;1715132;81;20997;-36
2022/02/17 13:07:29;;;;;;;21.75;13.32;;;;;;;11.28;75.74;98339.53;1727258;81;20994;-36
2022/02/17 13:09:55;;;;;;;22.90;13.62;;;;;;;11.28;75.29;98344.30;1694383;83;21024;-36
2022/02/17 13:12:21;;;;;;;23.62;13.20;;;;;;;11.27;75.78;98335.20;1704735;82;21495;-36
2022/02/17 13:14:54;;;;;;;21.75;12.80;;;;;;;11.18;75.61;98335.89;1727056;81;21040;-35
2022/02/17 13:18:09;;;;;;;26.17;13.65;;;;;;;11.12;76.05;98326.09;1704946;81;21020;-36
2022/02/17 13:20:48;;;;;;;19.77;12.33;;;;;;;11.12;75.87;98316.47;1714488;81;21018;-36
2022/02/17 13:23:22;;;;;;;28.80;12.13;;;;;;;11.10;75.65;98313.52;1693336;81;21758;-36
2022/02/17 13:25:48;;;;;;;22.17;12.70;;;;;;;11.05;76.09;98312.81;1717363;81;21507;-37
2022/02/17 13:28:21;;;;;;;23.92;11.78;;;;;;;11.01;76.34;98304.66;1719102;81;21014;-36
2022/02/17 13:30:48;;;;;;;23.45;12.15;;;;;;;10.94;76.20;98304.00;1725460;81;21419;-42
2022/02/17 13:33:18;;;;;;;22.65;12.98;;;;;;;10.92;76.83;98301.91;1720745;82;21018;-41
2022/02/17 13:35:48;;;;;;;24.12;13.18;;;;;;;10.88;76.67;98309.44;1721507;81;20954;-41
2022/02/17 13:38:15;;;;;;;21.97;12.03;;;;;;;10.83;76.82;98299.12;1724373;82;21633;-42
2022/02/17 13:40:49;;;;;;;26.27;13.13;;;;;;;10.81;77.27;98301.39;1732927;81;20962;-42
2022/02/17 13:43:16;;;;;;;28.30;13.75;;;;;;;10.76;76.98;98290.22;1728863;81;21698;-43
2022/02/17 13:45:45;;;;;;;29.48;13.72;;;;;;;10.74;77.53;98290.28;1720634;82;21018;-43
2022/02/17 13:48:35;;;;;;;25.70;13.22;;;;;;;10.70;77.29;98287.35;1699289;83;21537;-41
2022/02/17 13:51:11;;;;;;;21.23;12.47;;;;;;;10.68;77.20;98283.94;1702739;82;21023;-42
2022/02/17 13:53:44;;;;;;;24.20;12.63;;;;;;;10.65;77.00;98269.19;1720339;82;21409;-42
2022/02/17 13:56:16;;;;;;;26.02;12.98;;;;;;;10.62;77.09;98262.77;1717270;82;20950;-42
2022/02/17 13:58:45;;;;;;;22.25;12.90;;;;;;;10.59;77.45;98255.45;1709492;83;21004;-43
2022/02/17 14:01:13;;;;;;;21.97;11.93;;;;;;;10.52;77.54;98252.64;1695883;82;21610;-42
2022/02/17 14:03:47;;;;;;;18.15;12.13;;;;;;;10.47;77.74;98241.48;1715000;83;21077;-42
2022/02/17 14:06:22;;;;;;;20.68;12.30;;;;;;;10.41;78.23;98237.30;1700475;82;20981;-42
2022/02/17 14:08:49;;;;;;;21.40;13.35;;;;;;;10.35;78.26;98230.95;1717651;82;21569;-44
2022/02/17 14:11:17;;;;;;;27.13;14.47;;;;;;;10.29;78.71;98227.23;1725486;81;21096;-41
2022/02/17 14:13:44;;;;;;;26.95;14.78;;;;;;;10.21;78.55;98214.84;1745653;80;21002;-40
2022/02/17 14:16:11;;;;;;;24.47;14.03;;;;;;;10.15;78.95;98211.97;1722658;81;21451;-42
2022/02/17 14:18:40;;;;;;;32.45;15.18;;;;;;;10.11;79.00;98218.18;1724366;82;21193;-40
